Time;durP1;ratioP1;P1;durP2;ratioP2;P2;SDS_P1;SDS_P2;PMS_P1;PMS_P2;Temp;Humidity;BMP_temperature;BMP_pressure;BME280_temperature;BME280_humidity;BME280_pressure;Samples;Min_cycle;Max_cycle;Signal;HPM_P1;HPM_P2
2022/08/24 04:56:22;;;;;;;12.13;3.90;;;;;;;20.19;86.75;101736.06;10133583;29;20469;-70
2022/08/24 05:13:25;;;;;;;12.85;2.65;;;;;;;20.58;87.53;101739.09;10112532;29;20409;-70
2022/08/24 05:23:56;;;;;;;3.53;3.22;;;;;;;20.72;89.31;101747.94;10105656;29;20126;-70
2022/08/24 05:30:05;;;;;;;5.88;2.78;;;;;;;20.79;88.85;101748.63;10213482;28;20045;-70
2022/08/24 06:30:24;;;;;;;3.00;2.78;;;;;;;26.84;79.06;101745.41;10299920;28;20035;-71
2022/08/24 06:35:25;;;;;;;3.35;3.05;;;;;;;26.81;75.20;101752.38;10282707;28;20046;-71
2022/08/24 06:40:26;;;;;;;3.28;2.97;;;;;;;27.07;74.62;101744.72;10299056;28;20050;-71
2022/08/24 06:45:31;;;;;;;5.43;3.10;;;;;;;27.25;71.30;101759.06;10297942;28;20424;-72
2022/08/24 06:56:15;;;;;;;4.85;3.33;;;;;;;27.57;71.16;101756.59;10165298;29;20036;-71
2022/08/24 07:01:18;;;;;;;8.25;4.25;;;;;;;28.18;71.48;101765.50;10261609;28;20055;-71
2022/08/24 07:06:18;;;;;;;6.57;4.32;;;;;;;28.95;71.04;101766.22;10297838;28;20034;-71
2022/08/24 07:11:22;;;;;;;9.27;3.78;;;;;;;29.46;70.21;101758.22;10296797;28;20495;-71
2022/08/24 07:16:23;;;;;;;6.97;3.92;;;;;;;29.83;70.08;101769.28;10296342;28;20069;-71
2022/08/24 07:27:33;;;;;;;4.10;3.25;;;;;;;30.15;66.56;101770.38;10174455;29;20032;-70
2022/08/24 08:14:05;;;;;;;2.25;2.10;;;;;;;31.76;56.60;101801.00;9912347;29;20055;-72
2022/08/24 08:25:14;;;;;;;1.75;1.65;;;;;;;32.67;54.35;101805.25;10243423;29;20035;-71
2022/08/24 08:30:20;;;;;;;4.05;2.00;;;;;;;32.95;55.51;101814.22;10223363;29;20093;-71
2022/08/24 08:59:50;;;;;;;3.97;1.95;;;;;;;32.55;49.27;101803.09;10055374;29;20037;-72
2022/08/24 09:11:54;;;;;;;4.32;1.80;;;;;;;33.21;50.07;101811.47;9985418;29;20043;-71
2022/08/24 09:42:03;;;;;;;3.42;1.85;;;;;;;34.78;46.80;101818.41;10052877;29;20037;-72
2022/08/24 09:48:03;;;;;;;;;;;;;;;;;;;;;
2022/08/24 09:59:47;;;;;;;1.05;1.02;;;;;;;35.18;42.31;101801.06;10171916;29;20076;-72
2022/08/24 10:29:14;;;;;;;0.80;0.80;;;;;;;35.30;43.59;101789.06;10099235;29;20147;-71
2022/08/24 10:34:33;;;;;;;1.60;1.50;;;;;;;35.32;45.90;101787.56;10201740;29;20049;-72
2022/08/24 10:39:44;;;;;;;1.08;1.08;;;;;;;33.78;48.27;101794.44;10259623;29;20049;-71
2022/08/24 10:44:49;;;;;;;3.65;1.95;;;;;;;32.44;50.35;101798.91;10260084;29;20118;-71
2022/08/24 10:50:25;;;;;;;9.15;2.08;;;;;;;31.01;50.96;101792.94;10242076;29;20035;-72
2022/08/24 10:55:31;;;;;;;2.08;1.60;;;;;;;32.63;48.81;101791.88;10228090;29;20118;-71
2022/08/24 11:00:32;;;;;;;1.95;1.73;;;;;;;35.07;46.05;101782.94;10226019;29;20122;-71
2022/08/24 11:05:48;;;;;;;2.25;1.95;;;;;;;36.51;43.79;101781.28;10241345;29;20137;-72
2022/08/24 11:11:26;;;;;;;1.27;1.27;;;;;;;37.17;43.96;101780.09;10242736;29;20082;-72
2022/08/24 11:16:30;;;;;;;1.15;1.05;;;;;;;37.51;42.49;101777.88;10242143;28;20027;-72
2022/08/24 11:21:42;;;;;;;1.02;1.02;;;;;;;37.91;40.85;101781.44;10298133;28;20050;-71
2022/08/24 11:26:57;;;;;;;1.40;1.30;;;;;;;37.74;43.41;101770.44;10299128;28;20031;-72
2022/08/24 11:32:03;;;;;;;2.40;1.45;;;;;;;38.02;41.86;101769.59;10282094;28;20418;-72
2022/08/24 11:37:04;;;;;;;2.55;1.40;;;;;;;37.95;39.09;101770.22;10297592;28;20035;-72
2022/08/24 11:42:14;;;;;;;1.10;0.80;;;;;;;36.81;42.33;101767.72;10279912;28;20046;-72
2022/08/24 11:47:38;;;;;;;2.80;1.35;;;;;;;34.91;45.40;101766.66;10297186;28;20058;-71
2022/08/24 11:53:10;;;;;;;1.30;1.30;;;;;;;35.49;46.16;101766.03;10297566;28;20035;-72
2022/08/24 11:58:13;;;;;;;1.58;1.48;;;;;;;33.62;44.71;101771.66;10295335;28;20070;-72
2022/08/24 12:03:37;;;;;;;17.77;2.17;;;;;;;32.94;46.46;101751.66;10278721;28;20331;-73
2022/08/24 12:08:38;;;;;;;5.78;1.52;;;;;;;33.33;46.52;101747.88;10296000;28;20348;-72
2022/08/24 12:14:14;;;;;;;5.03;3.58;;;;;;;33.51;45.34;101751.53;10278866;28;20027;-71
2022/08/24 12:19:20;;;;;;;1.73;1.60;;;;;;;33.00;46.83;101755.19;10283497;28;20093;-71
2022/08/24 12:24:42;;;;;;;1.90;1.52;;;;;;;32.34;47.52;101760.75;10295045;28;20030;-71
2022/08/24 12:35:38;;;;;;;2.10;2.00;;;;;;;31.55;48.82;101750.28;10133215;29;20591;-71
2022/08/24 12:40:47;;;;;;;2.00;1.90;;;;;;;31.12;48.97;101765.56;10203653;28;20058;-71
2022/08/24 12:45:48;;;;;;;1.95;1.85;;;;;;;30.99;49.84;101761.69;10251379;29;20110;-71
2022/08/24 12:51:34;;;;;;;18.52;1.95;;;;;;;31.44;49.70;101767.34;10250621;29;20077;-71
2022/08/24 12:57:08;;;;;;;1.90;1.80;;;;;;;31.85;49.53;101765.47;10221784;29;20035;-71
2022/08/24 13:02:17;;;;;;;8.63;2.40;;;;;;;32.06;49.34;101765.75;10249988;29;20039;-72
2022/08/24 13:07:20;;;;;;;2.10;2.00;;;;;;;32.03;49.77;101767.22;10294063;28;20043;-72
2022/08/24 13:12:42;;;;;;;1.30;1.30;;;;;;;31.78;50.14;101765.94;10293382;28;20030;-71
2022/08/24 13:17:43;;;;;;;1.33;1.23;;;;;;;31.50;50.81;101759.66;10293911;28;20436;-71
2022/08/24 13:23:05;;;;;;;2.13;1.88;;;;;;;31.19;51.81;101765.97;10294050;28;20043;-72
2022/08/24 13:28:08;;;;;;;1.92;1.65;;;;;;;30.91;52.25;101764.38;10277906;28;20061;-71
2022/08/24 13:33:09;;;;;;;2.08;1.80;;;;;;;30.64;52.68;101765.25;10294553;28;20347;-72
2022/08/24 13:38:22;;;;;;;2.60;2.22;;;;;;;30.48;52.72;101767.53;10276320;28;20043;-72
2022/08/24 13:43:42;;;;;;;1.60;1.50;;;;;;;30.55;52.77;101763.19;10293844;28;20491;-72
2022/08/24 13:49:07;;;;;;;1.48;1.38;;;;;;;30.86;52.39;101756.94;10260937;28;20509;-70
2022/08/24 13:55:19;;;;;;;1.58;1.48;;;;;;;31.19;52.30;101757.56;10260033;28;20050;-70
2022/08/24 14:00:50;;;;;;;1.65;1.55;;;;;;;31.50;51.69;101749.28;10138597;29;20396;-72
2022/08/24 14:06:20;;;;;;;2.95;1.83;;;;;;;31.68;51.77;101750.19;10301045;28;20178;-71
2022/08/24 14:12:10;;;;;;;5.30;1.45;;;;;;;31.58;52.44;101752.44;10284410;28;20394;-71
2022/08/24 14:23:01;;;;;;;1.85;1.23;;;;;;;32.04;52.05;101738.06;10299681;28;20472;-71
2022/08/24 14:34:49;;;;;;;4.88;1.48;;;;;;;32.10;52.08;101750.78;10255702;29;20063;-72
2022/08/24 14:40:03;;;;;;;2.80;1.45;;;;;;;32.02;52.61;101740.34;10298907;28;20082;-73
2022/08/24 15:03:12;;;;;;;3.40;1.77;;;;;;;31.78;53.30;101726.72;10253684;28;20118;-72
2022/08/24 15:14:44;;;;;;;1.83;1.50;;;;;;;30.40;55.07;101721.56;10254932;29;20031;-72
2022/08/24 15:50:41;;;;;;;1.43;1.40;;;;;;;28.70;57.71;101719.19;10058537;29;20068;-72
2022/08/24 16:02:24;;;;;;;2.30;1.80;;;;;;;27.85;64.09;101726.28;9959086;29;20047;-72
2022/08/24 16:07:34;;;;;;;2.05;1.92;;;;;;;27.63;62.89;101718.41;10220177;28;20479;-72
2022/08/24 16:13:32;;;;;;;2.90;2.70;;;;;;;27.76;63.07;101706.63;10280008;28;20380;-72
2022/08/24 16:31:09;;;;;;;5.45;3.03;;;;;;;27.67;65.48;101701.97;10253072;29;20498;-72
2022/08/24 16:36:17;;;;;;;4.57;2.72;;;;;;;27.41;66.58;101699.44;10293576;28;20035;-72
2022/08/24 16:41:22;;;;;;;1.95;1.85;;;;;;;27.33;65.57;101691.72;10295578;28;20042;-72
2022/08/24 17:10:05;;;;;;;3.38;3.08;;;;;;;26.98;65.35;101674.16;9831099;30;20036;-72
2022/08/24 17:15:07;;;;;;;2.83;2.25;;;;;;;26.83;67.64;101677.88;10193361;28;20136;-71
2022/08/24 17:20:11;;;;;;;3.45;3.22;;;;;;;26.70;69.29;101670.19;10292429;28;20063;-71
2022/08/24 17:38:13;;;;;;;2.88;2.65;;;;;;;26.49;68.68;101682.53;9911613;30;20500;-71
2022/08/24 18:06:49;;;;;;;6.65;3.95;;;;;;;26.11;69.45;101699.59;10023351;29;20109;-71
2022/08/24 18:17:44;;;;;;;4.07;3.08;;;;;;;25.99;70.32;101707.41;10300599;28;20042;-71
2022/08/24 18:22:51;;;;;;;3.30;3.00;;;;;;;25.92;70.69;101706.88;10284597;28;20085;-71
2022/08/24 18:27:53;;;;;;;9.25;4.13;;;;;;;25.87;69.39;101709.66;10283783;28;20037;-72
2022/08/24 18:38:28;;;;;;;3.42;3.13;;;;;;;25.71;71.05;101717.97;10201944;29;20047;-78
2022/08/24 18:43:32;;;;;;;6.30;4.35;;;;;;;25.60;69.62;101719.09;10291633;28;20058;-74
2022/08/24 18:48:32;;;;;;;4.53;3.92;;;;;;;25.48;70.55;101726.88;10283362;28;20070;-74
2022/08/24 18:53:34;;;;;;;3.20;3.00;;;;;;;25.43;69.68;101733.25;10297878;28;20451;-75
2022/08/24 18:58:35;;;;;;;5.57;3.95;;;;;;;25.28;70.45;101736.84;10299015;28;20038;-75
2022/08/24 19:03:36;;;;;;;6.63;4.30;;;;;;;25.12;71.70;101737.09;10265658;28;20041;-75
2022/08/24 19:08:36;;;;;;;4.10;3.80;;;;;;;24.96;74.63;101745.38;10296769;28;20031;-74
2022/08/24 19:13:37;;;;;;;15.25;4.60;;;;;;;24.85;74.09;101748.38;10281050;28;20031;-75
2022/08/24 19:18:38;;;;;;;7.63;5.25;;;;;;;24.71;75.25;101745.31;10280195;28;20023;-75
2022/08/24 19:23:39;;;;;;;9.68;5.13;;;;;;;24.58;75.39;101746.63;10296147;28;20451;-75
2022/08/24 19:28:40;;;;;;;4.38;3.97;;;;;;;24.47;74.34;101742.16;10264482;28;20096;-74
2022/08/24 19:33:43;;;;;;;5.63;5.13;;;;;;;24.32;74.86;101749.25;10296351;28;20034;-74
2022/08/24 19:38:44;;;;;;;5.47;5.00;;;;;;;24.18;80.28;101745.28;10280191;28;20479;-74
2022/08/24 19:49:06;;;;;;;5.75;5.35;;;;;;;24.04;78.39;101749.66;10283179;28;20042;-75
2022/08/24 19:54:07;;;;;;;5.93;4.85;;;;;;;23.93;79.31;101747.91;10263664;28;20089;-75
2022/08/24 19:59:26;;;;;;;8.85;6.28;;;;;;;23.83;84.81;101748.69;10281131;28;20041;-75
2022/08/24 20:04:35;;;;;;;7.00;6.35;;;;;;;23.75;85.69;101751.94;10278802;28;20078;-76
2022/08/24 20:09:35;;;;;;;5.95;5.43;;;;;;;23.63;84.79;101755.69;10264282;28;20043;-75
2022/08/24 20:14:39;;;;;;;8.02;7.32;;;;;;;23.54;86.24;101743.44;10279987;28;20038;-75
2022/08/24 20:19:41;;;;;;;12.68;7.47;;;;;;;23.44;91.38;101749.72;10264582;28;20119;-75
2022/08/24 20:24:42;;;;;;;15.15;8.40;;;;;;;23.38;90.11;101753.53;10262668;28;20055;-75
2022/08/24 20:29:43;;;;;;;17.05;9.27;;;;;;;23.31;91.01;101750.16;10262394;28;20125;-76
2022/08/24 20:34:44;;;;;;;11.10;10.00;;;;;;;23.26;87.00;101754.81;10294755;28;20030;-75
2022/08/24 20:39:44;;;;;;;12.23;10.73;;;;;;;23.16;92.90;101752.78;10295425;28;20034;-75
2022/08/24 20:44:45;;;;;;;17.23;11.35;;;;;;;23.13;90.60;101743.09;10278607;28;20155;-76
2022/08/24 20:49:46;;;;;;;12.38;11.15;;;;;;;23.11;90.74;101749.97;10277742;28;20137;-76
2022/08/24 20:54:48;;;;;;;11.10;9.52;;;;;;;23.02;90.44;101743.25;10294310;28;20039;-75
2022/08/24 20:59:50;;;;;;;14.68;10.20;;;;;;;23.00;91.95;101753.72;10292625;28;20039;-75
2022/08/24 21:04:52;;;;;;;10.80;9.77;;;;;;;22.98;91.40;101754.00;10276709;28;20085;-75
2022/08/24 21:09:53;;;;;;;11.57;10.40;;;;;;;22.92;94.51;101744.78;10277084;28;20031;-74
2022/08/24 21:14:54;;;;;;;10.57;9.48;;;;;;;22.91;95.16;101748.66;10261148;28;20427;-75
2022/08/24 21:19:56;;;;;;;11.13;9.63;;;;;;;22.87;95.33;101744.72;10276189;28;20540;-74
2022/08/24 21:24:56;;;;;;;11.57;9.30;;;;;;;22.88;92.33;101751.91;10293305;28;20058;-74
2022/08/24 21:29:57;;;;;;;13.38;11.25;;;;;;;22.80;99.49;101738.56;10294100;28;20039;-74
2022/08/24 21:34:58;;;;;;;11.30;9.40;;;;;;;22.75;97.07;101739.34;10276581;28;20085;-75
2022/08/24 21:40:54;;;;;;;;;;;;;;;;;;;;;
2022/08/24 21:45:19;;;;;;;14.88;9.70;;;;;;;22.62;93.94;101730.63;10171247;29;20135;-75
2022/08/24 21:50:20;;;;;;;12.93;9.77;;;;;;;22.56;93.43;101738.03;10274910;28;20548;-75
2022/08/24 21:55:21;;;;;;;11.75;10.65;;;;;;;22.49;92.28;101734.59;10292270;28;20037;-74
2022/08/24 22:00:22;;;;;;;10.70;9.65;;;;;;;22.44;93.00;101731.78;10291890;28;20039;-74
2022/08/24 22:05:24;;;;;;;11.82;10.70;;;;;;;22.40;93.20;101737.00;10277900;28;20038;-75
2022/08/24 22:11:07;;;;;;;18.38;11.95;;;;;;;22.36;92.19;101733.06;10276222;28;20034;-75
2022/08/24 22:16:09;;;;;;;11.68;10.68;;;;;;;22.32;94.25;101742.13;10277498;28;20046;-74
2022/08/24 22:21:14;;;;;;;12.70;11.45;;;;;;;22.25;96.99;101736.78;10299581;28;20035;-74
2022/08/24 22:26:15;;;;;;;13.55;12.25;;;;;;;22.21;96.62;101738.41;10299115;28;20058;-74
2022/08/24 22:31:18;;;;;;;14.05;12.65;;;;;;;22.13;95.06;101728.59;10300262;28;20455;-74
2022/08/24 22:36:18;;;;;;;14.40;12.35;;;;;;;22.11;92.87;101727.16;10299103;28;20041;-74
2022/08/24 22:47:18;;;;;;;16.98;13.10;;;;;;;22.01;92.35;101720.41;10176554;29;20519;-71
2022/08/24 22:58:41;;;;;;;19.27;14.48;;;;;;;21.96;95.55;101714.84;10255112;29;20039;-71
2022/08/24 23:03:46;;;;;;;19.60;15.93;;;;;;;21.96;94.17;101714.00;10297941;28;20479;-71
2022/08/24 23:08:47;;;;;;;21.80;16.25;;;;;;;21.93;95.35;101709.00;10297755;28;20065;-71
2022/08/24 23:20:11;;;;;;;21.27;17.08;;;;;;;21.86;94.49;101706.44;10298341;28;20113;-71
2022/08/24 23:25:12;;;;;;;30.48;18.00;;;;;;;21.86;95.65;101698.16;10295890;28;20137;-71
2022/08/24 23:30:20;;;;;;;20.60;18.30;;;;;;;21.82;97.70;101700.59;10298127;28;20035;-71
2022/08/24 23:41:30;;;;;;;31.55;21.48;;;;;;;21.78;99.82;101682.03;10214165;29;20468;-71
2022/08/24 23:46:31;;;;;;;26.40;22.33;;;;;;;21.78;100.00;101682.03;10275134;28;20124;-71
